Time;durP1;ratioP1;P1;durP2;ratioP2;P2;SDS_P1;SDS_P2;PMS_P1;PMS_P2;Temp;Humidity;BMP_temperature;BMP_pressure;BME280_temperature;BME280_humidity;BME280_pressure;Samples;Min_cycle;Max_cycle;Signal;HPM_P1;HPM_P2
2024/04/11 00:01:55;;;;;;;1.95;1.50;;;;;;;9.03;86.62;102487.13;6685985;21;20504;-69
2024/04/11 00:07:52;;;;;;;3.28;1.40;;;;;;;9.20;86.62;102493.56;6685579;21;20234;-69
2024/04/11 00:10:20;;;;;;;4.85;1.38;;;;;;;9.22;86.75;102495.09;6685620;21;20241;-68
2024/04/11 00:12:51;;;;;;;5.03;1.07;;;;;;;9.15;86.10;102489.44;6686970;21;20680;-70
2024/04/11 00:15:21;;;;;;;3.47;1.08;;;;;;;9.12;86.64;102495.16;6686156;21;20574;-69
2024/04/11 00:17:52;;;;;;;2.80;1.70;;;;;;;9.14;86.46;102485.06;6686504;21;20260;-69
2024/04/11 00:20:21;;;;;;;8.90;1.45;;;;;;;9.10;86.54;102488.22;6683422;21;20233;-69
2024/04/11 00:22:55;;;;;;;1.23;0.80;;;;;;;8.97;87.28;102491.28;6686386;21;20222;-70
2024/04/11 00:25:23;;;;;;;1.65;1.10;;;;;;;8.83;88.22;102489.13;6685744;21;20492;-69
2024/04/11 00:27:54;;;;;;;2.10;1.90;;;;;;;8.75;88.47;102488.19;6687884;21;20331;-70
2024/04/11 00:30:22;;;;;;;4.10;2.27;;;;;;;8.78;89.14;102491.41;6685551;21;20230;-69
2024/04/11 00:32:53;;;;;;;1.88;1.35;;;;;;;8.85;88.12;102492.53;6690328;21;20496;-69
2024/04/11 00:35:23;;;;;;;1.70;1.40;;;;;;;8.78;88.95;102486.03;6689031;21;20225;-69
2024/04/11 00:37:58;;;;;;;1.63;1.50;;;;;;;8.91;89.14;102496.44;6689156;21;20221;-69
2024/04/11 00:40:27;;;;;;;1.15;0.68;;;;;;;8.79;89.28;102492.28;6689149;21;20237;-70
2024/04/11 00:42:59;;;;;;;1.90;1.70;;;;;;;8.67;89.56;102489.78;6688462;21;20608;-69
2024/04/11 00:45:28;;;;;;;1.25;0.95;;;;;;;8.77;89.31;102495.13;6688829;21;20281;-70
2024/04/11 00:47:59;;;;;;;1.25;0.93;;;;;;;8.69;89.58;102495.03;6688695;21;20222;-70
2024/04/11 00:50:27;;;;;;;1.17;0.90;;;;;;;9.06;89.76;102495.78;6688092;21;20318;-70
2024/04/11 00:53:01;;;;;;;1.95;1.73;;;;;;;8.89;89.25;102499.31;6688531;21;21026;-70
2024/04/11 00:55:29;;;;;;;1.90;1.20;;;;;;;8.75;89.13;102498.97;6688415;21;20746;-69
2024/04/11 00:58:00;;;;;;;2.05;1.83;;;;;;;8.66;89.63;102503.44;6688216;21;20282;-70
2024/04/11 01:00:28;;;;;;;2.65;1.02;;;;;;;8.70;90.17;102494.03;6687562;21;20286;-70
2024/04/11 01:02:59;;;;;;;2.15;1.95;;;;;;;8.67;90.33;102488.91;6688283;21;20230;-69
2024/04/11 01:05:27;;;;;;;2.50;1.60;;;;;;;8.61;90.22;102494.94;6687848;21;20234;-70
2024/04/11 01:08:07;;;;;;;4.10;1.80;;;;;;;8.55;90.31;102491.00;6688469;21;20282;-69
2024/04/11 01:10:38;;;;;;;4.18;1.58;;;;;;;8.49;90.10;102491.59;6685767;21;20338;-69
2024/04/11 01:13:06;;;;;;;1.00;0.75;;;;;;;8.39;90.71;102489.94;6688242;21;20277;-70
2024/04/11 01:15:40;;;;;;;1.55;1.20;;;;;;;8.49;90.89;102490.75;6687771;21;20622;-70
2024/04/11 01:18:08;;;;;;;1.52;0.80;;;;;;;8.48;91.37;102489.88;6687589;21;20222;-69
2024/04/11 01:20:40;;;;;;;1.20;0.77;;;;;;;8.62;91.31;102485.81;6687193;21;20253;-69
2024/04/11 01:23:12;;;;;;;3.08;1.88;;;;;;;8.52;90.53;102485.06;6689745;21;20234;-70
2024/04/11 01:25:43;;;;;;;3.58;2.00;;;;;;;8.53;90.53;102481.34;6705875;21;20286;-71
2024/04/11 01:28:11;;;;;;;1.70;1.50;;;;;;;8.48;90.80;102489.03;6695775;21;20629;-70
2024/04/11 01:30:42;;;;;;;1.95;1.85;;;;;;;8.47;89.82;102487.34;6692877;21;20319;-70
2024/04/11 01:33:10;;;;;;;1.80;1.17;;;;;;;8.43;90.60;102485.94;6689898;21;20705;-70
2024/04/11 01:35:41;;;;;;;1.40;1.30;;;;;;;8.36;90.78;102482.16;6687709;21;20219;-69
2024/04/11 01:38:12;;;;;;;1.52;1.42;;;;;;;8.18;91.22;102477.50;6687729;21;20247;-71
2024/04/11 01:40:47;;;;;;;2.13;1.85;;;;;;;8.24;92.51;102479.59;6687271;21;20242;-70
2024/04/11 01:43:15;;;;;;;1.20;0.93;;;;;;;8.60;91.79;102479.75;6687000;21;20328;-68
2024/04/11 01:45:49;;;;;;;1.95;1.40;;;;;;;8.86;90.55;102488.81;6686920;21;20617;-69
2024/04/11 01:48:17;;;;;;;2.30;0.85;;;;;;;8.72;89.99;102482.06;6684398;21;20245;-69
2024/04/11 01:50:48;;;;;;;1.75;1.30;;;;;;;8.66;89.72;102481.84;6687223;21;20623;-69
2024/04/11 01:53:18;;;;;;;2.00;1.17;;;;;;;8.57;89.90;102482.72;6687586;21;20540;-69
2024/04/11 01:55:49;;;;;;;2.58;1.40;;;;;;;8.46;90.85;102491.03;6687248;21;20218;-71
2024/04/11 01:58:17;;;;;;;1.10;0.75;;;;;;;8.62;90.92;102485.81;6687576;21;20245;-70
2024/04/11 02:00:48;;;;;;;5.13;1.77;;;;;;;8.42;91.23;102495.06;6689750;21;20226;-69
2024/04/11 02:03:16;;;;;;;1.50;1.40;;;;;;;8.33;91.98;102493.25;6693808;21;20303;-69
2024/04/11 02:05:49;;;;;;;4.95;1.48;;;;;;;8.29;92.56;102498.03;6689064;21;20226;-70
2024/04/11 02:08:20;;;;;;;1.38;1.20;;;;;;;8.27;93.18;102498.22;6687427;21;20218;-69
2024/04/11 02:10:53;;;;;;;1.15;1.00;;;;;;;8.40;92.02;102499.72;6687584;21;20234;-70
2024/04/11 02:13:21;;;;;;;1.77;1.27;;;;;;;8.55;91.84;102492.84;6687527;21;20310;-68
2024/04/11 02:15:52;;;;;;;1.35;0.80;;;;;;;8.43;91.23;102491.31;6686800;21;20540;-69
2024/04/11 02:18:19;;;;;;;1.20;0.90;;;;;;;8.25;92.28;102484.00;6687338;21;20260;-69
2024/04/11 02:20:53;;;;;;;4.20;2.35;;;;;;;8.42;92.15;102490.50;6686903;21;20268;-69
2024/04/11 02:23:24;;;;;;;1.65;0.90;;;;;;;8.47;91.84;102492.75;6687093;21;20230;-68
2024/04/11 02:25:54;;;;;;;1.58;1.42;;;;;;;8.51;91.72;102495.00;6686741;21;20611;-69
2024/04/11 02:28:24;;;;;;;2.33;1.80;;;;;;;8.28;92.02;102494.47;6686676;21;20913;-68
2024/04/11 02:30:55;;;;;;;1.02;0.80;;;;;;;8.10;92.80;102490.88;6687258;21;20295;-69
2024/04/11 02:33:25;;;;;;;1.52;0.98;;;;;;;8.06;93.57;102499.41;6687092;21;20257;-69
2024/04/11 02:35:55;;;;;;;1.52;0.90;;;;;;;8.05;93.64;102492.31;6683938;21;20244;-70
2024/04/11 02:38:26;;;;;;;2.33;2.08;;;;;;;7.92;94.31;102491.78;6687085;21;20218;-69
2024/04/11 02:40:56;;;;;;;2.13;1.42;;;;;;;8.25;94.89;102489.41;6686650;21;20238;-69
2024/04/11 02:43:24;;;;;;;4.63;1.13;;;;;;;8.21;93.85;102498.78;6686713;21;20217;-69
2024/04/11 02:45:57;;;;;;;1.88;1.42;;;;;;;8.05;94.57;102498.56;6686679;21;20264;-69
2024/04/11 02:48:26;;;;;;;2.75;1.42;;;;;;;8.00;95.43;102490.06;6686823;21;20252;-68
2024/04/11 02:50:57;;;;;;;2.38;1.17;;;;;;;8.05;95.75;102495.84;6686134;21;20256;-68
2024/04/11 02:53:28;;;;;;;2.00;1.33;;;;;;;8.23;95.10;102494.06;6686865;21;20256;-69
2024/04/11 02:55:58;;;;;;;4.45;1.35;;;;;;;8.44;94.42;102490.34;6685898;21;20264;-69
2024/04/11 02:58:27;;;;;;;5.05;1.55;;;;;;;8.29;94.52;102489.94;6686979;21;20226;-69
2024/04/11 03:01:03;;;;;;;2.35;1.60;;;;;;;8.36;94.38;102490.25;6687266;21;20230;-70
2024/04/11 03:03:32;;;;;;;2.00;1.40;;;;;;;8.63;93.91;102498.31;6686411;21;20229;-69
2024/04/11 03:06:09;;;;;;;2.63;2.17;;;;;;;8.53;93.49;102492.97;6686227;21;20252;-69
2024/04/11 03:08:40;;;;;;;1.85;1.30;;;;;;;8.51;93.40;102491.44;6686381;21;20639;-69
2024/04/11 03:11:11;;;;;;;5.50;1.45;;;;;;;8.54;93.30;102496.53;6686686;21;20226;-70
2024/04/11 03:13:40;;;;;;;1.50;1.05;;;;;;;8.63;92.63;102495.63;6686483;21;20221;-70
2024/04/11 03:16:11;;;;;;;1.48;1.38;;;;;;;8.48;93.23;102494.44;6686236;21;20218;-69
2024/04/11 03:18:40;;;;;;;2.15;1.35;;;;;;;8.58;93.21;102496.09;6686484;21;20315;-70
2024/04/11 03:21:11;;;;;;;1.90;1.70;;;;;;;8.29;93.69;102488.13;6686537;21;20256;-70
2024/04/11 03:23:42;;;;;;;3.72;1.75;;;;;;;8.06;94.16;102497.56;6686483;21;20218;-69
2024/04/11 03:26:12;;;;;;;3.50;1.73;;;;;;;7.88;96.05;102490.38;6686209;21;20222;-70
2024/04/11 03:28:41;;;;;;;2.65;2.15;;;;;;;7.92;96.95;102492.63;6684249;21;20218;-70
2024/04/11 03:31:13;;;;;;;3.33;1.75;;;;;;;8.17;96.32;102493.84;6687166;21;20234;-69
2024/04/11 03:33:41;;;;;;;1.30;1.00;;;;;;;8.18;95.60;102482.88;6686602;21;20723;-68
2024/04/11 03:36:12;;;;;;;1.70;1.58;;;;;;;8.02;95.70;102482.69;6686314;21;20233;-67
2024/04/11 03:38:44;;;;;;;2.08;0.95;;;;;;;8.11;95.40;102484.50;6687025;21;20260;-70
2024/04/11 03:41:15;;;;;;;2.42;1.17;;;;;;;8.07;96.35;102479.53;6684794;21;20304;-69
2024/04/11 03:43:46;;;;;;;1.77;1.60;;;;;;;8.00;96.34;102473.03;6686773;21;20290;-70
2024/04/11 03:46:19;;;;;;;3.30;1.88;;;;;;;8.25;95.84;102469.66;6685485;21;20214;-69
2024/04/11 03:48:53;;;;;;;2.53;1.83;;;;;;;8.27;94.85;102470.38;6686111;21;20554;-69
2024/04/11 03:51:23;;;;;;;1.90;1.05;;;;;;;8.09;95.12;102477.53;6686756;21;20605;-68
2024/04/11 03:53:58;;;;;;;2.00;1.58;;;;;;;7.93;95.74;102488.97;6686643;21;20250;-70
2024/04/11 03:56:27;;;;;;;5.75;2.03;;;;;;;7.88;97.45;102477.75;6685988;21;20213;-69
2024/04/11 03:58:59;;;;;;;5.75;2.10;;;;;;;7.80;97.57;102489.25;6686061;21;20257;-70
2024/04/11 04:01:28;;;;;;;2.60;1.42;;;;;;;7.82;98.36;102483.72;6686457;21;20282;-70
2024/04/11 04:04:02;;;;;;;3.53;2.50;;;;;;;7.81;98.12;102490.09;6686624;21;20214;-69
2024/04/11 04:06:33;;;;;;;3.40;2.47;;;;;;;7.86;97.84;102495.91;6686027;21;20222;-69
2024/04/11 04:09:10;;;;;;;2.05;1.70;;;;;;;7.76;98.57;102503.16;6686507;21;20326;-69
2024/04/11 04:11:41;;;;;;;2.22;1.35;;;;;;;7.84;98.92;102500.63;6687884;21;20255;-71
2024/04/11 04:14:13;;;;;;;2.20;2.00;;;;;;;8.08;98.67;102500.13;6688173;21;20218;-69
2024/04/11 04:16:42;;;;;;;3.67;1.85;;;;;;;7.92;97.57;102491.78;6687455;21;20226;-71
2024/04/11 04:19:18;;;;;;;4.50;1.90;;;;;;;8.04;97.66;102496.84;6686172;21;20214;-69
2024/04/11 04:21:46;;;;;;;6.90;2.30;;;;;;;8.14;96.82;102503.06;6686012;21;20272;-69
2024/04/11 04:24:19;;;;;;;4.15;3.13;;;;;;;8.06;96.56;102494.88;6686298;21;20715;-70
2024/04/11 04:26:47;;;;;;;6.82;3.78;;;;;;;8.17;95.89;102497.38;6686477;21;20265;-70
2024/04/11 04:29:17;;;;;;;3.83;2.03;;;;;;;8.21;95.93;102504.19;6686213;21;20222;-70
2024/04/11 04:31:47;;;;;;;3.40;2.83;;;;;;;8.34;95.79;102500.31;6684031;21;20268;-70
2024/04/11 04:34:17;;;;;;;5.30;3.28;;;;;;;8.36;94.45;102501.03;6686358;21;20226;-68
2024/04/11 04:36:47;;;;;;;3.15;1.35;;;;;;;8.25;95.15;102510.13;6687025;21;20218;-69
2024/04/11 04:39:30;;;;;;;3.65;2.13;;;;;;;8.32;95.88;102510.44;6687393;21;20218;-69
2024/04/11 04:41:59;;;;;;;2.65;1.55;;;;;;;8.48;94.65;102505.22;6686754;21;20350;-69
2024/04/11 04:44:29;;;;;;;2.58;1.83;;;;;;;9.00;92.16;102507.22;6684604;21;20226;-70
2024/04/11 04:46:58;;;;;;;2.10;1.85;;;;;;;9.58;87.76;102506.72;6686083;21;20218;-70
2024/04/11 04:49:30;;;;;;;3.03;2.33;;;;;;;9.64;86.03;102508.78;6685329;21;20269;-69
2024/04/11 04:51:58;;;;;;;3.05;2.20;;;;;;;9.56;86.36;102508.72;6685836;21;20242;-69
2024/04/11 04:54:31;;;;;;;5.43;3.05;;;;;;;9.81;85.64;102518.72;6685242;21;20531;-69
2024/04/11 04:56:59;;;;;;;6.93;2.95;;;;;;;10.29;83.74;102511.97;6685227;21;20677;-69
2024/04/11 04:59:29;;;;;;;6.22;1.70;;;;;;;11.10;78.89;102506.81;6685855;21;20223;-70
2024/04/11 05:01:58;;;;;;;2.75;2.40;;;;;;;11.47;75.88;102509.09;6686274;21;20231;-70
2024/04/11 05:04:29;;;;;;;1.42;1.20;;;;;;;11.46;76.14;102505.53;6683580;21;20266;-69
2024/04/11 05:06:58;;;;;;;3.97;3.00;;;;;;;12.29;72.25;102508.00;6686534;21;20278;-70
2024/04/11 05:09:35;;;;;;;2.00;1.52;;;;;;;12.93;68.61;102509.56;6684403;21;20252;-69
2024/04/11 05:12:06;;;;;;;3.13;2.37;;;;;;;12.10;70.78;102506.50;6686613;21;20237;-70
2024/04/11 05:14:38;;;;;;;2.35;1.70;;;;;;;11.24;74.12;102508.88;6686284;21;20971;-70
2024/04/11 05:17:10;;;;;;;2.88;1.73;;;;;;;10.70;77.52;102505.69;6686261;21;20223;-70
2024/04/11 05:19:41;;;;;;;6.97;3.00;;;;;;;10.32;78.96;102500.81;6685792;21;20253;-71
2024/04/11 05:22:11;;;;;;;2.63;2.03;;;;;;;10.11;81.57;102497.63;6689119;21;20433;-71
2024/04/11 05:24:42;;;;;;;5.73;2.27;;;;;;;9.90;82.63;102490.75;6688731;21;20409;-68
2024/04/11 05:27:12;;;;;;;2.17;1.80;;;;;;;9.84;82.98;102502.19;6688538;21;20456;-68
2024/04/11 05:29:41;;;;;;;2.70;1.63;;;;;;;10.01;82.67;102495.03;6687717;21;20555;-69
2024/04/11 05:32:11;;;;;;;4.60;2.75;;;;;;;9.88;82.88;102495.44;6688187;21;20870;-69
2024/04/11 05:34:39;;;;;;;3.08;2.08;;;;;;;10.02;82.67;102489.44;6689991;21;20218;-70
2024/04/11 05:37:10;;;;;;;3.15;1.63;;;;;;;10.17;81.63;102486.19;6689749;21;20257;-70
2024/04/11 05:39:57;;;;;;;1.50;1.00;;;;;;;10.21;80.49;102488.44;6691166;21;20265;-69
2024/04/11 05:42:28;;;;;;;1.37;1.27;;;;;;;10.24;81.00;102493.50;6691002;21;20735;-67
2024/04/11 05:44:57;;;;;;;1.27;1.03;;;;;;;10.43;79.27;102493.25;6689352;21;20437;-70
2024/04/11 05:47:27;;;;;;;2.27;1.70;;;;;;;10.51;78.43;102494.28;6689483;21;20500;-69
2024/04/11 05:49:55;;;;;;;4.33;2.50;;;;;;;10.64;77.81;102505.53;6687878;21;20444;-68
2024/04/11 05:52:27;;;;;;;5.77;1.63;;;;;;;10.67;77.03;102499.78;6688169;21;20720;-69
2024/04/11 05:54:58;;;;;;;2.70;1.90;;;;;;;10.76;77.02;102496.94;6688163;21;20428;-69
2024/04/11 05:57:29;;;;;;;5.27;2.53;;;;;;;10.86;76.27;102502.19;6687872;21;20425;-68
2024/04/11 05:59:57;;;;;;;2.70;2.10;;;;;;;10.92;75.96;102498.84;6688397;21;20444;-68
2024/04/11 06:02:34;;;;;;;2.37;1.70;;;;;;;11.10;75.14;102496.84;6687763;21;20444;-69
2024/04/11 06:05:04;;;;;;;2.30;2.10;;;;;;;11.21;73.61;102498.38;6687713;21;20427;-67
2024/04/11 06:07:35;;;;;;;4.27;2.70;;;;;;;11.29;73.26;102501.09;6687392;21;20499;-68
2024/04/11 06:10:11;;;;;;;3.57;3.13;;;;;;;11.40;73.68;102503.47;6684701;21;20807;-69
2024/04/11 06:12:49;;;;;;;2.40;1.97;;;;;;;11.64;73.11;102503.47;6685224;21;20529;-68
2024/04/11 06:15:25;;;;;;;6.40;2.93;;;;;;;11.71;70.41;102507.19;6685477;21;20485;-66
2024/04/11 06:18:02;;;;;;;5.63;1.40;;;;;;;11.76;70.00;102498.59;6685405;21;20801;-69
2024/04/11 06:20:43;;;;;;;4.63;2.13;;;;;;;12.01;70.46;102507.53;6685734;21;20484;-68
2024/04/11 06:23:22;;;;;;;1.50;1.33;;;;;;;12.08;69.33;102503.13;6686392;21;20551;-69
2024/04/11 06:26:00;;;;;;;7.20;3.37;;;;;;;12.30;67.98;102507.78;6687210;21;20420;-69
2024/04/11 06:28:36;;;;;;;2.07;1.80;;;;;;;12.40;66.35;102505.72;6686062;21;20978;-67
2024/04/11 06:31:10;;;;;;;2.50;2.03;;;;;;;12.44;67.15;102503.53;6685508;21;20452;-69
2024/04/11 06:33:50;;;;;;;1.70;1.23;;;;;;;12.70;66.85;102512.22;6685047;21;20487;-70
2024/04/11 06:36:25;;;;;;;3.47;2.13;;;;;;;12.70;65.14;102498.66;6684016;21;21077;-68
2024/04/11 06:39:05;;;;;;;3.13;2.10;;;;;;;12.81;64.00;102491.97;6683606;21;20497;-69
2024/04/11 06:41:44;;;;;;;3.97;2.67;;;;;;;12.76;64.92;102502.53;6683877;21;20459;-69
2024/04/11 06:44:21;;;;;;;2.90;1.97;;;;;;;13.01;64.67;102502.22;6684068;21;20543;-67
2024/04/11 06:46:53;;;;;;;2.23;1.83;;;;;;;13.24;62.54;102495.97;6684573;21;20479;-68
2024/04/11 06:49:28;;;;;;;2.07;1.27;;;;;;;13.38;62.28;102504.19;6684930;21;20436;-70
2024/04/11 06:52:02;;;;;;;2.67;2.37;;;;;;;13.61;61.62;102503.31;6684416;21;20475;-69
2024/04/11 06:54:43;;;;;;;2.97;2.60;;;;;;;13.77;61.26;102511.34;6687065;21;20424;-69
2024/04/11 06:57:22;;;;;;;7.53;2.40;;;;;;;13.91;59.49;102518.69;6684512;21;20448;-70
2024/04/11 07:00:02;;;;;;;2.27;1.90;;;;;;;14.02;58.88;102518.25;6684079;21;20589;-68
2024/04/11 07:02:33;;;;;;;5.53;1.87;;;;;;;14.07;58.23;102512.25;6684419;21;20472;-69
2024/04/11 07:05:12;;;;;;;2.70;1.93;;;;;;;14.15;58.53;102518.44;6639959;21;20420;-69
2024/04/11 07:07:45;;;;;;;13.60;3.77;;;;;;;14.40;58.45;102512.75;6684926;21;20455;-68
2024/04/11 07:10:24;;;;;;;1.77;1.47;;;;;;;14.38;58.08;102523.00;6684601;21;20472;-67
2024/04/11 07:13:00;;;;;;;1.53;1.20;;;;;;;14.64;56.68;102520.63;6684407;21;20452;-70
2024/04/11 07:15:42;;;;;;;3.77;2.17;;;;;;;14.72;55.43;102515.91;6685693;21;20478;-69
2024/04/11 07:18:15;;;;;;;4.87;4.37;;;;;;;14.77;55.39;102509.91;6684216;21;20505;-68
2024/04/11 07:20:56;;;;;;;2.10;1.50;;;;;;;15.05;55.37;102510.03;6686258;21;20440;-68
2024/04/11 07:23:42;;;;;;;4.20;1.97;;;;;;;15.30;53.04;102505.88;6684760;21;20484;-68
2024/04/11 07:26:21;;;;;;;1.90;1.70;;;;;;;15.36;53.17;102501.53;6641386;21;20512;-69
2024/04/11 07:28:59;;;;;;;2.27;1.90;;;;;;;15.59;51.74;102502.19;6682881;21;20428;-69
2024/04/11 07:31:39;;;;;;;2.10;1.73;;;;;;;15.75;50.81;102491.00;6687059;21;20969;-69
2024/04/11 07:34:15;;;;;;;1.40;0.90;;;;;;;15.76;50.64;102492.72;6683114;21;20469;-68
2024/04/11 07:36:52;;;;;;;1.33;1.07;;;;;;;15.53;50.35;102486.63;6682751;21;20427;-68
2024/04/11 07:39:26;;;;;;;2.27;1.80;;;;;;;15.51;49.29;102488.72;6683768;21;20472;-70
2024/04/11 07:42:18;;;;;;;2.63;1.73;;;;;;;15.58;49.41;102486.91;6682711;21;20554;-68
2024/04/11 07:44:58;;;;;;;2.33;1.47;;;;;;;15.95;48.30;102486.56;6686191;21;20728;-69
2024/04/11 07:47:37;;;;;;;1.73;1.47;;;;;;;16.05;48.00;102487.03;6688811;21;20512;-69
2024/04/11 07:50:26;;;;;;;1.97;1.13;;;;;;;15.75;47.67;102488.28;6647259;21;20492;-69
2024/04/11 07:53:07;;;;;;;1.80;1.40;;;;;;;15.87;47.02;102492.19;6687022;21;20526;-70
2024/04/11 07:55:39;;;;;;;4.70;2.30;;;;;;;15.85;46.29;102486.06;6684387;21;20938;-69
2024/04/11 07:58:18;;;;;;;2.57;1.40;;;;;;;16.02;46.10;102487.44;6684376;21;21014;-69
2024/04/11 08:01:01;;;;;;;1.50;1.10;;;;;;;16.04;44.51;102489.97;6684205;21;20508;-69
2024/04/11 08:03:38;;;;;;;1.17;0.80;;;;;;;16.17;44.01;102484.59;6682962;21;20424;-70
2024/04/11 08:06:16;;;;;;;1.20;1.00;;;;;;;16.41;44.11;102491.47;6683182;21;20501;-67
2024/04/11 08:08:58;;;;;;;2.67;1.30;;;;;;;16.54;43.98;102491.53;6685612;21;20730;-68
2024/04/11 08:11:34;;;;;;;2.27;1.20;;;;;;;16.65;43.34;102492.88;6683738;21;20555;-69
2024/04/11 08:14:12;;;;;;;1.10;0.73;;;;;;;17.16;42.46;102501.44;6683703;21;20463;-69
2024/04/11 08:16:50;;;;;;;1.20;0.80;;;;;;;17.33;40.71;102497.28;6685507;21;20814;-69
2024/04/11 08:19:27;;;;;;;1.47;0.83;;;;;;;17.18;41.04;102500.22;6683901;21;20456;-70
2024/04/11 08:22:13;;;;;;;1.37;1.13;;;;;;;17.37;40.34;102506.75;6683384;21;21026;-69
2024/04/11 08:24:50;;;;;;;1.20;0.80;;;;;;;17.24;39.53;102514.94;6686444;21;20539;-69
2024/04/11 08:27:25;;;;;;;1.50;0.93;;;;;;;17.38;40.23;102511.16;6683632;21;20473;-69
2024/04/11 08:30:05;;;;;;;1.20;0.80;;;;;;;17.60;39.67;102509.97;6684678;21;20946;-69
2024/04/11 08:32:45;;;;;;;1.80;1.20;;;;;;;17.76;39.52;102519.69;6685053;21;20459;-71
2024/04/11 08:35:22;;;;;;;1.43;1.00;;;;;;;17.96;38.78;102509.53;6686160;21;20808;-70
2024/04/11 08:37:56;;;;;;;1.90;1.70;;;;;;;17.74;38.31;102519.03;6640980;21;20957;-69
2024/04/11 08:41:34;;;;;;;1.30;0.93;;;;;;;17.66;38.16;102509.16;6686517;21;20449;-71
2024/04/11 08:44:07;;;;;;;3.03;0.70;;;;;;;18.21;37.90;102517.94;6686087;21;20480;-70
2024/04/11 08:46:48;;;;;;;1.40;0.70;;;;;;;18.30;37.55;102521.31;6683554;21;20531;-69
2024/04/11 08:53:27;;;;;;;1.20;0.93;;;;;;;17.75;36.86;102532.53;6684817;21;20444;-70
2024/04/11 08:56:00;;;;;;;1.07;0.77;;;;;;;17.33;37.44;102528.22;6686485;21;20428;-71
2024/04/11 08:58:37;;;;;;;1.20;0.73;;;;;;;17.48;37.43;102522.56;6688930;21;20448;-69
2024/04/11 09:01:10;;;;;;;1.27;1.00;;;;;;;17.46;38.16;102532.03;6686488;21;20467;-70
2024/04/11 09:03:47;;;;;;;3.73;0.97;;;;;;;17.48;37.24;102528.03;6685636;21;20506;-70
2024/04/11 09:06:23;;;;;;;1.63;1.00;;;;;;;17.78;37.72;102531.25;6685407;21;20432;-70
2024/04/11 09:09:16;;;;;;;1.27;0.63;;;;;;;17.83;36.97;102536.94;6685467;21;20545;-69
2024/04/11 09:11:47;;;;;;;1.30;0.70;;;;;;;18.06;36.90;102534.59;6685873;21;20804;-69
2024/04/11 09:14:26;;;;;;;1.53;0.70;;;;;;;18.18;36.67;102546.63;6685913;21;20542;-69
2024/04/11 09:17:01;;;;;;;2.10;1.00;;;;;;;18.14;36.93;102547.25;6685793;21;20744;-70
2024/04/11 09:19:39;;;;;;;1.33;0.77;;;;;;;18.10;37.33;102549.59;6688534;21;20428;-69
2024/04/11 09:22:12;;;;;;;1.30;1.00;;;;;;;18.47;36.67;102547.19;6685705;21;20507;-70
2024/04/11 09:24:52;;;;;;;1.70;0.90;;;;;;;18.78;36.15;102541.03;6688737;21;20510;-68
2024/04/11 09:27:25;;;;;;;1.10;0.63;;;;;;;18.81;36.10;102537.84;6685723;21;20455;-70
2024/04/11 09:30:03;;;;;;;2.10;1.20;;;;;;;18.54;36.21;102534.34;6685493;21;20433;-70
2024/04/11 09:32:36;;;;;;;1.53;0.80;;;;;;;18.38;36.23;102541.09;6687839;21;20465;-70
2024/04/11 09:35:12;;;;;;;1.10;0.73;;;;;;;18.32;36.18;102544.69;6685918;21;20959;-69
2024/04/11 09:37:44;;;;;;;1.20;0.90;;;;;;;18.48;36.38;102535.19;6688379;21;20496;-69
2024/04/11 09:40:34;;;;;;;1.23;0.80;;;;;;;18.57;36.30;102540.25;6643266;21;20492;-69
2024/04/11 09:43:07;;;;;;;1.20;0.90;;;;;;;18.92;36.71;102537.16;6686138;21;20504;-70
2024/04/11 09:45:50;;;;;;;1.10;0.60;;;;;;;18.74;35.77;102542.50;6685965;21;20531;-70
2024/04/11 09:48:21;;;;;;;3.23;1.00;;;;;;;18.75;36.17;102538.69;6687107;21;20975;-70
2024/04/11 09:50:55;;;;;;;1.40;0.70;;;;;;;18.54;36.38;102534.34;6685946;21;20440;-70
2024/04/11 09:53:36;;;;;;;1.57;1.13;;;;;;;18.59;35.82;102538.13;6689248;21;20475;-69
2024/04/11 09:56:18;;;;;;;0.90;0.50;;;;;;;18.91;35.37;102539.06;6686662;21;20452;-68
2024/04/11 09:58:51;;;;;;;1.40;0.90;;;;;;;18.94;35.47;102529.53;6686557;21;20460;-71
2024/04/11 10:01:41;;;;;;;1.20;0.50;;;;;;;18.80;34.97;102539.72;6733231;21;20496;-70
2024/04/11 10:04:21;;;;;;;3.13;0.73;;;;;;;18.78;34.66;102552.00;6687321;21;20428;-69
2024/04/11 10:06:58;;;;;;;1.93;1.17;;;;;;;18.56;35.33;102554.16;6690511;21;20526;-69
2024/04/11 10:09:29;;;;;;;1.10;0.70;;;;;;;18.78;35.13;102541.03;6692483;21;20444;-70
2024/04/11 10:12:09;;;;;;;1.13;0.80;;;;;;;19.12;34.61;102548.06;6687303;21;20548;-69
2024/04/11 10:14:44;;;;;;;1.77;0.70;;;;;;;19.01;34.27;102552.31;6685615;21;20432;-70
2024/04/11 10:17:19;;;;;;;1.33;0.67;;;;;;;19.02;34.41;102549.38;6685497;21;20455;-68
2024/04/11 10:19:59;;;;;;;1.17;0.73;;;;;;;19.47;34.30;102552.06;6689395;21;20412;-70
2024/04/11 10:22:35;;;;;;;2.63;1.10;;;;;;;19.56;33.14;102544.44;6685956;21;20447;-71
2024/04/11 10:25:09;;;;;;;24.07;2.37;;;;;;;19.50;34.27;102558.00;6686767;21;20452;-70
2024/04/11 10:27:51;;;;;;;8.17;1.47;;;;;;;19.40;33.98;102560.34;6688878;21;20432;-70
2024/04/11 10:30:23;;;;;;;1.70;0.80;;;;;;;18.89;34.02;102554.88;6686723;21;20504;-69
2024/04/11 10:32:58;;;;;;;1.00;0.70;;;;;;;18.75;34.74;102560.63;6689301;21;20487;-72
2024/04/11 10:35:28;;;;;;;3.03;1.00;;;;;;;18.71;33.96;102560.25;6687554;21;20500;-71
2024/04/11 10:38:12;;;;;;;1.10;0.60;;;;;;;18.70;34.93;102555.81;6688569;21;20781;-68
2024/04/11 10:40:48;;;;;;;1.10;0.70;;;;;;;18.79;34.66;102554.50;6685787;21;20782;-70
2024/04/11 10:43:27;;;;;;;1.00;0.60;;;;;;;18.62;35.19;102554.16;6685324;21;20495;-69
2024/04/11 10:45:59;;;;;;;1.20;0.63;;;;;;;19.16;34.47;102554.78;6687940;21;20444;-72
2024/04/11 10:48:31;;;;;;;2.53;1.23;;;;;;;19.09;34.53;102549.31;6690137;21;20476;-69
2024/04/11 10:51:01;;;;;;;1.23;0.77;;;;;;;18.79;34.71;102551.75;6689191;21;20433;-68
2024/04/11 10:53:34;;;;;;;2.80;0.87;;;;;;;18.63;34.64;102555.84;6685656;21;20486;-69
2024/04/11 10:56:20;;;;;;;1.13;0.77;;;;;;;18.90;35.34;102547.50;6685884;21;21077;-70
2024/04/11 10:58:56;;;;;;;1.00;0.63;;;;;;;18.57;35.32;102545.72;6686162;21;20508;-69
2024/04/11 11:01:27;;;;;;;1.00;0.50;;;;;;;18.52;35.38;102545.50;6686467;21;20565;-69
2024/04/11 11:04:06;;;;;;;1.70;0.63;;;;;;;18.55;35.48;102544.25;6684506;21;20559;-70
2024/04/11 11:06:51;;;;;;;1.00;0.60;;;;;;;18.39;35.47;102537.31;6685592;21;20934;-71
2024/04/11 11:09:27;;;;;;;1.10;0.80;;;;;;;18.28;35.17;102545.34;6684334;21;20535;-70
2024/04/11 11:12:00;;;;;;;2.40;1.47;;;;;;;18.49;35.78;102545.91;6684928;21;20831;-71
2024/04/11 11:14:41;;;;;;;1.10;0.60;;;;;;;18.80;35.68;102538.88;6685577;21;20448;-70
2024/04/11 11:17:17;;;;;;;1.60;0.90;;;;;;;18.64;34.96;102540.22;6684647;21;20507;-70
2024/04/11 11:19:55;;;;;;;1.00;0.60;;;;;;;18.58;35.38;102541.94;6684492;21;20452;-70
2024/04/11 11:22:29;;;;;;;1.10;0.80;;;;;;;18.90;35.21;102533.78;6685199;21;20480;-68
2024/04/11 11:25:08;;;;;;;1.77;0.80;;;;;;;18.78;35.42;102541.03;6685568;21;20527;-70
2024/04/11 11:27:40;;;;;;;1.10;0.93;;;;;;;19.33;34.55;102534.81;6685191;21;20500;-72
2024/04/11 11:30:16;;;;;;;1.37;0.70;;;;;;;19.60;34.07;102538.28;6684342;21;21028;-71
2024/04/11 11:32:49;;;;;;;1.40;0.70;;;;;;;19.81;34.17;102545.28;6684809;21;20774;-69
2024/04/11 11:35:24;;;;;;;2.40;0.77;;;;;;;19.62;33.37;102538.88;6685135;21;20456;-70
2024/04/11 11:37:55;;;;;;;1.27;0.77;;;;;;;19.83;33.53;102537.66;6684663;21;20499;-71
2024/04/11 11:40:46;;;;;;;1.07;0.53;;;;;;;19.87;32.87;102541.66;6683825;21;20488;-70
2024/04/11 11:43:16;;;;;;;1.30;0.80;;;;;;;19.62;32.85;102532.53;6684144;21;20531;-70
2024/04/11 11:48:40;;;;;;;1.30;1.07;;;;;;;19.31;33.06;102536.13;6684147;21;20769;-70
2024/04/11 11:51:12;;;;;;;3.27;0.80;;;;;;;19.51;33.10;102521.22;6683599;21;20516;-71
2024/04/11 11:53:49;;;;;;;1.10;0.70;;;;;;;19.53;33.09;102529.22;6687302;21;20473;-70
2024/04/11 11:56:22;;;;;;;1.20;0.90;;;;;;;19.36;33.25;102523.41;6683781;21;20567;-71
2024/04/11 11:59:02;;;;;;;1.20;0.63;;;;;;;19.45;33.43;102524.88;6683682;21;20472;-70
2024/04/11 12:01:41;;;;;;;1.33;0.60;;;;;;;19.23;33.47;102528.97;6684057;21;20521;-69
2024/04/11 12:04:19;;;;;;;1.77;1.60;;;;;;;19.41;33.96;102531.81;6685799;21;20460;-70
2024/04/11 12:06:52;;;;;;;3.87;0.60;;;;;;;19.36;33.72;102528.91;6684263;21;20428;-70
2024/04/11 12:09:31;;;;;;;2.30;0.70;;;;;;;19.33;33.47;102528.50;6686220;21;20836;-70
2024/04/11 12:12:20;;;;;;;1.90;1.00;;;;;;;19.25;34.06;102529.59;6683515;21;20548;-69